Greenville, SC

11:48 AM EDT on May 29, 2015 (GMT -0400)
APRSWXNET | | Change Station
CLOSE
Current Station
Personal Weather Station
Location: Greenville, SC
Elevation: 961 ft
Nearby Weather Stations

Elev 961 ft 34.84 °N, 82.40 °W | Updated 38 minutes ago

Overcast
Overcast
72 °F
Feels Like 72 °F
N
1
Wind Variable Wind from SE
Gusts 0.0 mph

Today
High -- | Low -- °F
--% Chance of Precip.
Yesterday
High -- | Low -- °F
Precip. -- in
6:18 AM 8:35 PM
Waxing Gibbous, 84% visible
Pressure 30.27 in
Visibility 10.0 miles
Clouds Overcast 3000 ft
Heat Index 72 °F
Dew Point 66 °F
Humidity 81%
Rainfall in
Snow Depth Not available.
UV 3 out of 12
Pollen 6.80 out of 12
Air Quality Not available.
Flu Activity Local Activity
METAR KGMU 291453Z VRB03KT 10SM OVC030 23/18 A3029 RMK AO2 SLP248 T02280183 51010

More Conditions Fewer Conditions

Pressure 30.27 in
Visibility 10.0 miles
Clouds Overcast 3000 ft
Heat Index 72 °F
Dew Point 66 °F
Humidity 81%
Rainfall in
Snow Depth Not available.
UV 3 out of 12
Pollen 6.80 out of 12
Air Quality Not available.
Flu Activity Local Activity
METAR KGMU 291453Z VRB03KT 10SM OVC030 23/18 A3029 RMK AO2 SLP248 T02280183 51010

More Conditions Fewer Conditions

10-Day Weather Forecast

Almanac

Astronomy

May. 29, 2015 Rise Set
Actual Time
Civil Twilight
Nautical Twilight
Astronomical Twilight
Moon
Length of Visible Light
Length of Day
Tomorrow will be .
, % of the Moon is Illuminated

Today's Extremes

State Highs State Lows

Community

WunderPhotos

Upload Photos

1,825,294 photos uploaded!

WunderBlogs® & News

Nearby

Air Quality

  Air Quality AQ Index Pollutant
Not available.

Snow Depth

Station Depth Elevation

Earthquake Activity

City Distance Mag. Time & Date
Minimum magnitude displayed is 2.5.

Coastal Water Temperatures

Place Temperature

Stations

Nearby Weather Stations

Station Location Temp. Windchill Dew Point Humidity Wind Precip. Elev Updated Type